SBCG/CGR METAR and TAF weather

Enter ICAO airport designator
Station Type Date Time Source
SBCG METAR 2019/05/21 21:00 UTC NOAA

SBCG 212100Z 34005KT CAVOK 26/15 Q1014


Station Type Date Time Source
SBCG Decoded METAR 2019/05/21 21:00 UTC NOAA

Campo Grande Aeroporto , Brazil (SBCG) 20-28S 054-40W 567M
May 21, 2019 - 05:00 PM EDT / 2019.05.21 2100 UTC
Wind: from the NNW (340 degrees) at 6 MPH (5 KT):0
Visibility: greater than 7 mile(s):0
Temperature: 78 F (26 C)
Dew Point: 59 F (15 C)
Relative Humidity: 50%
Pressure (altimeter): 29.94 in. Hg (1014 hPa)
ob: SBCG 212100Z 34005KT CAVOK 26/15 Q1014
cycle: 21

Station Type Date Time Source
SBCG TAF 2019/05/21 18:30 UTC NOAA

TAF TAF SBCG 211500Z 2118/2218 35007KT CAVOK TN20/2208Z TX33/2218Z
TEMPO 2119/2121 9999 FEW045
BECMG 2121/2123 03007KT
RMK PDJ

Example: see airport list